Time;durP1;ratioP1;P1;durP2;ratioP2;P2;SDS_P1;SDS_P2;PMS_P1;PMS_P2;Temp;Humidity;BMP_temperature;BMP_pressure;BME280_temperature;BME280_humidity;BME280_pressure;Samples;Min_cycle;Max_cycle;Signal;HPM_P1;HPM_P2
2021/01/22 00:02:19;;;;;;;2.10;0.90;;;12.90;62.20;;;;;;2589728;52;20946;-67
2021/01/22 00:04:46;;;;;;;2.65;1.12;;;13.00;62.20;;;;;;2575313;53;21998;-67
2021/01/22 00:07:12;;;;;;;2.33;0.90;;;13.00;61.90;;;;;;2609096;52;21010;-66
2021/01/22 00:09:40;;;;;;;1.37;0.70;;;13.10;61.90;;;;;;2596427;52;20952;-66
2021/01/22 00:12:07;;;;;;;2.42;0.80;;;13.10;62.20;;;;;;2580463;52;21005;-66
2021/01/22 00:14:33;;;;;;;2.47;0.90;;;13.20;61.50;;;;;;2342664;54;20948;-66
2021/01/22 00:17:02;;;;;;;2.78;0.70;;;13.30;61.80;;;;;;2341748;53;20977;-66
2021/01/22 00:19:29;;;;;;;3.30;0.88;;;13.30;61.20;;;;;;2581841;52;20946;-66
2021/01/22 00:21:55;;;;;;;5.32;1.40;;;13.40;61.10;;;;;;2355234;54;20975;-66
2021/01/22 00:24:21;;;;;;;3.65;1.20;;;13.40;60.00;;;;;;2347383;54;21789;-66
2021/01/22 00:26:48;;;;;;;2.10;0.70;;;13.50;61.20;;;;;;2597187;52;20991;-67
2021/01/22 00:29:15;;;;;;;2.17;0.60;;;13.50;59.80;;;;;;2359185;53;20933;-67
2021/01/22 00:31:41;;;;;;;2.03;0.60;;;13.50;60.00;;;;;;2589088;52;20943;-66
2021/01/22 00:34:08;;;;;;;1.85;0.62;;;13.70;60.30;;;;;;2586642;52;21071;-66
2021/01/22 00:36:34;;;;;;;1.55;0.50;;;13.70;59.90;;;;;;2368327;54;20958;-67
2021/01/22 00:39:01;;;;;;;2.15;0.60;;;13.60;59.50;;;;;;2587764;52;20931;-68
2021/01/22 00:41:28;;;;;;;1.48;0.50;;;13.60;59.60;;;;;;2592356;52;22088;-66
2021/01/22 00:43:55;;;;;;;2.78;0.70;;;13.70;59.50;;;;;;2352736;54;20955;-66
2021/01/22 00:46:21;;;;;;;1.40;0.62;;;13.80;59.30;;;;;;2586273;52;20942;-67
2021/01/22 00:48:48;;;;;;;1.70;0.68;;;13.80;59.20;;;;;;2368041;53;20999;-67
2021/01/22 00:51:14;;;;;;;3.62;0.90;;;13.70;59.10;;;;;;2355631;54;20998;-66
2021/01/22 00:53:41;;;;;;;2.00;0.88;;;13.80;58.40;;;;;;2363267;53;21026;-66
2021/01/22 00:56:12;;;;;;;2.03;0.60;;;13.80;58.80;;;;;;2579023;52;20939;-67
2021/01/22 00:58:39;;;;;;;1.77;0.50;;;13.90;58.60;;;;;;2591606;52;21020;-66
2021/01/22 01:01:05;;;;;;;1.15;0.50;;;13.90;59.00;;;;;;2363017;53;20965;-67
2021/01/22 01:03:31;;;;;;;1.73;0.60;;;13.90;58.70;;;;;;2616583;52;20910;-66
2021/01/22 01:05:58;;;;;;;1.83;0.70;;;14.00;58.20;;;;;;2351967;54;21486;-66
2021/01/22 01:08:24;;;;;;;2.12;0.60;;;14.00;57.50;;;;;;2352546;53;21365;-66
2021/01/22 01:10:50;;;;;;;2.58;0.85;;;14.00;57.50;;;;;;2618259;52;20965;-66
2021/01/22 01:13:16;;;;;;;4.32;0.93;;;14.00;57.70;;;;;;2591258;52;20947;-66
2021/01/22 01:15:43;;;;;;;1.65;0.57;;;14.00;57.50;;;;;;2612287;52;20966;-67
2021/01/22 01:18:09;;;;;;;2.62;0.60;;;14.10;57.60;;;;;;2595633;52;20942;-67
2021/01/22 01:20:36;;;;;;;3.00;0.75;;;14.10;57.90;;;;;;2591857;52;20982;-66
2021/01/22 01:23:03;;;;;;;2.25;0.70;;;14.10;57.30;;;;;;2601765;52;21017;-67
2021/01/22 01:25:29;;;;;;;1.55;0.70;;;14.10;56.60;;;;;;2585095;52;21817;-67
2021/01/22 01:27:56;;;;;;;1.33;0.60;;;14.10;56.90;;;;;;2594890;52;20955;-67
2021/01/22 01:30:22;;;;;;;3.53;0.85;;;14.10;56.20;;;;;;2591598;52;20971;-67
2021/01/22 01:32:49;;;;;;;4.05;0.77;;;14.10;56.50;;;;;;2607504;52;20926;-67
2021/01/22 01:35:15;;;;;;;3.72;0.75;;;14.20;56.10;;;;;;2370165;54;20942;-66
2021/01/22 01:37:42;;;;;;;2.80;0.62;;;14.20;55.90;;;;;;2372544;54;21010;-67
2021/01/22 01:40:08;;;;;;;2.45;0.60;;;14.20;56.20;;;;;;2609660;52;20887;-67
2021/01/22 01:42:35;;;;;;;1.95;0.70;;;14.30;56.40;;;;;;2592120;52;20964;-66
2021/01/22 01:45:01;;;;;;;2.47;0.85;;;14.30;55.40;;;;;;2589510;52;20974;-66
2021/01/22 01:47:28;;;;;;;4.43;0.80;;;14.30;55.20;;;;;;2601728;52;20958;-66
2021/01/22 01:49:56;;;;;;;4.18;0.98;;;14.30;55.60;;;;;;2361528;53;21535;-66
2021/01/22 01:52:28;;;;;;;3.87;1.00;;;14.30;55.60;;;;;;2608881;52;20998;-66
2021/01/22 01:54:55;;;;;;;2.50;0.70;;;14.30;54.80;;;;;;2354153;54;21503;-66
2021/01/22 01:57:21;;;;;;;2.00;0.60;;;14.40;55.30;;;;;;2608672;52;21005;-67
2021/01/22 01:59:48;;;;;;;2.40;0.70;;;14.30;55.10;;;;;;2579724;53;20919;-66
2021/01/22 02:02:14;;;;;;;1.80;0.80;;;14.30;55.40;;;;;;2338991;53;21861;-66
2021/01/22 02:04:40;;;;;;;3.03;1.00;;;14.30;54.70;;;;;;2336178;53;21136;-66
2021/01/22 02:07:06;;;;;;;3.78;0.70;;;14.40;54.30;;;;;;2569789;53;21478;-65
2021/01/22 02:09:33;;;;;;;4.20;0.80;;;14.30;54.80;;;;;;2585776;53;20950;-66
2021/01/22 02:11:59;;;;;;;2.53;0.73;;;14.30;54.90;;;;;;2346920;53;21024;-67
2021/01/22 02:14:26;;;;;;;3.17;0.85;;;14.30;55.10;;;;;;2335046;53;21039;-66
2021/01/22 02:16:55;;;;;;;4.25;0.80;;;14.40;54.30;;;;;;2583313;52;20984;-66
2021/01/22 02:19:45;;;;;;;3.03;0.95;;;14.40;54.10;;;;;;2590475;52;21052;-66
2021/01/22 02:22:11;;;;;;;5.10;1.15;;;14.30;53.90;;;;;;2304945;54;20923;-66
2021/01/22 02:24:39;;;;;;;4.62;1.00;;;14.30;54.00;;;;;;2584565;53;20964;-65
2021/01/22 02:27:05;;;;;;;5.30;1.10;;;14.30;53.50;;;;;;2577671;53;21002;-67
2021/01/22 02:29:32;;;;;;;3.90;0.82;;;14.30;53.40;;;;;;2331889;53;20975;-66
2021/01/22 02:32:02;;;;;;;4.30;1.00;;;14.30;53.10;;;;;;2581160;53;21019;-66
2021/01/22 02:34:29;;;;;;;5.05;0.90;;;14.30;52.70;;;;;;2571621;52;20993;-66
2021/01/22 02:36:58;;;;;;;3.70;0.62;;;14.30;53.50;;;;;;2574171;53;21039;-66
2021/01/22 02:40:09;;;;;;;3.45;0.75;;;14.30;53.90;;;;;;2547325;53;21075;-66
2021/01/22 02:42:39;;;;;;;6.05;0.90;;;14.30;53.50;;;;;;2562104;52;21779;-66
2021/01/22 02:45:10;;;;;;;3.85;0.90;;;14.30;53.50;;;;;;2580179;53;21831;-66
2021/01/22 02:47:36;;;;;;;5.68;1.10;;;14.30;52.80;;;;;;2587509;53;20912;-66
2021/01/22 02:50:04;;;;;;;4.60;0.98;;;14.30;53.30;;;;;;2336568;53;20944;-66
2021/01/22 02:52:31;;;;;;;3.60;1.10;;;14.30;52.50;;;;;;2361385;53;21420;-66
2021/01/22 02:54:57;;;;;;;6.05;1.00;;;14.20;53.30;;;;;;2592382;52;20945;-66
2021/01/22 02:57:46;;;;;;;4.78;1.02;;;14.20;53.30;;;;;;2581468;52;20966;-65
2021/01/22 03:00:18;;;;;;;4.87;1.00;;;14.20;52.10;;;;;;2554109;52;20979;-66
2021/01/22 03:04:07;;;;;;;3.05;1.00;;;14.20;53.20;;;;;;2331995;54;20979;-66
2021/01/22 03:06:40;;;;;;;7.80;1.83;;;14.20;53.40;;;;;;2551106;53;20996;-66
2021/01/22 03:09:07;;;;;;;3.80;0.80;;;14.20;53.90;;;;;;2329531;53;21020;-66
2021/01/22 03:11:35;;;;;;;3.05;0.62;;;14.20;54.30;;;;;;2551428;53;21011;-66
2021/01/22 03:14:03;;;;;;;3.40;0.88;;;14.20;54.50;;;;;;2343269;53;20920;-67
2021/01/22 03:16:32;;;;;;;4.28;1.12;;;14.20;53.80;;;;;;2587631;52;20962;-66
2021/01/22 03:19:00;;;;;;;4.85;0.80;;;14.10;53.90;;;;;;2357782;53;21004;-65
2021/01/22 03:21:27;;;;;;;3.42;1.10;;;14.10;54.30;;;;;;2552558;53;20980;-66
2021/01/22 03:23:53;;;;;;;3.45;0.70;;;14.00;53.40;;;;;;2566725;53;21015;-65
2021/01/22 03:26:20;;;;;;;4.68;1.02;;;14.00;53.20;;;;;;2580607;52;21042;-66
2021/01/22 03:28:46;;;;;;;4.60;1.02;;;14.00;53.70;;;;;;2348629;54;21025;-65
2021/01/22 03:31:14;;;;;;;4.35;0.80;;;14.00;53.70;;;;;;2588330;52;21007;-66
2021/01/22 03:33:40;;;;;;;2.35;0.75;;;14.00;53.90;;;;;;2590028;52;20948;-66
2021/01/22 03:36:06;;;;;;;3.37;0.90;;;14.00;54.50;;;;;;2587260;52;20953;-65
2021/01/22 03:38:35;;;;;;;3.90;0.88;;;14.00;53.70;;;;;;2351449;53;21122;-66
2021/01/22 03:41:02;;;;;;;3.22;1.10;;;14.00;53.60;;;;;;2592016;52;20951;-66
2021/01/22 03:43:28;;;;;;;3.33;0.70;;;14.00;53.30;;;;;;2604361;52;20989;-66
2021/01/22 03:45:56;;;;;;;2.80;0.62;;;14.00;53.90;;;;;;2599999;52;20919;-66
2021/01/22 03:48:22;;;;;;;5.37;0.90;;;14.00;54.00;;;;;;2339045;53;21045;-66
2021/01/22 03:50:49;;;;;;;2.58;0.70;;;14.00;53.90;;;;;;2601710;52;21005;-66
2021/01/22 03:53:16;;;;;;;3.65;0.80;;;14.00;54.40;;;;;;2355684;53;20927;-66
2021/01/22 03:55:51;;;;;;;5.72;1.02;;;14.00;54.20;;;;;;2591915;52;20963;-66
2021/01/22 03:58:17;;;;;;;5.62;0.90;;;14.00;53.70;;;;;;2359739;54;20950;-66
2021/01/22 04:00:43;;;;;;;2.97;0.70;;;14.00;54.10;;;;;;2592705;52;20923;-65
2021/01/22 04:03:10;;;;;;;4.03;0.70;;;14.10;54.00;;;;;;2622801;52;21843;-66
2021/01/22 04:05:36;;;;;;;2.42;0.73;;;14.10;54.10;;;;;;2591167;52;20932;-66
2021/01/22 04:08:04;;;;;;;4.10;0.80;;;14.10;53.60;;;;;;2591203;52;21067;-66
2021/01/22 04:10:30;;;;;;;3.87;0.90;;;14.10;53.40;;;;;;2590484;52;21823;-65
2021/01/22 04:12:57;;;;;;;4.62;0.85;;;14.10;53.40;;;;;;2587973;52;21494;-66
2021/01/22 04:15:23;;;;;;;4.32;0.90;;;14.10;53.50;;;;;;2588141;52;20967;-65
2021/01/22 04:17:50;;;;;;;2.80;0.70;;;14.10;53.20;;;;;;2352812;54;20973;-66
2021/01/22 04:20:21;;;;;;;3.40;0.70;;;14.10;53.70;;;;;;2350090;53;21776;-65
2021/01/22 04:22:53;;;;;;;3.53;0.80;;;14.20;53.30;;;;;;2370491;54;20993;-65
2021/01/22 04:25:19;;;;;;;3.10;0.80;;;14.20;53.40;;;;;;2590960;52;20931;-66
2021/01/22 04:27:46;;;;;;;2.05;0.60;;;14.20;53.90;;;;;;2608592;52;20916;-66
2021/01/22 04:30:13;;;;;;;3.33;0.88;;;14.30;54.40;;;;;;2580196;52;20970;-66
2021/01/22 04:32:41;;;;;;;4.85;0.90;;;14.20;53.40;;;;;;2352587;54;20926;-66
2021/01/22 04:35:13;;;;;;;4.60;0.88;;;14.20;53.40;;;;;;2590752;52;20933;-66
2021/01/22 04:37:43;;;;;;;4.62;0.88;;;14.30;53.80;;;;;;2619677;52;20937;-66
2021/01/22 04:40:10;;;;;;;3.62;0.77;;;14.30;54.20;;;;;;2369719;54;21722;-65
2021/01/22 04:42:40;;;;;;;4.32;0.85;;;14.30;53.70;;;;;;2592086;52;21041;-65
2021/01/22 04:45:08;;;;;;;3.47;0.70;;;14.30;54.20;;;;;;2600036;52;20986;-66
2021/01/22 04:47:34;;;;;;;2.83;0.85;;;14.30;54.10;;;;;;2596953;52;21490;-66
2021/01/22 04:50:03;;;;;;;5.10;0.80;;;14.30;54.70;;;;;;2351255;53;21412;-66
2021/01/22 04:52:32;;;;;;;4.00;0.70;;;14.30;54.90;;;;;;2591245;52;21427;-66
2021/01/22 04:54:59;;;;;;;2.72;0.70;;;14.30;55.00;;;;;;2592149;52;20961;-66
2021/01/22 04:57:27;;;;;;;3.17;0.60;;;14.30;55.20;;;;;;2588340;52;20931;-66
2021/01/22 04:59:53;;;;;;;2.10;0.60;;;14.40;55.20;;;;;;2596866;52;21885;-66
2021/01/22 05:02:21;;;;;;;2.47;0.73;;;14.30;55.20;;;;;;2604560;52;21065;-66
2021/01/22 05:04:47;;;;;;;5.18;1.08;;;14.30;55.30;;;;;;2617871;52;20946;-66
2021/01/22 05:07:13;;;;;;;2.17;0.65;;;14.30;54.80;;;;;;2591272;52;20937;-65
2021/01/22 05:09:40;;;;;;;3.62;1.02;;;14.30;54.40;;;;;;2607754;52;21024;-66
2021/01/22 05:12:07;;;;;;;3.20;0.77;;;14.30;54.90;;;;;;2589398;52;20975;-65
2021/01/22 05:14:34;;;;;;;3.03;0.90;;;14.30;54.50;;;;;;2599468;52;21002;-65
2021/01/22 05:17:10;;;;;;;2.67;0.55;;;14.30;54.60;;;;;;2600220;52;20954;-65
2021/01/22 05:19:38;;;;;;;3.22;0.77;;;14.30;54.80;;;;;;2348630;53;20925;-66
2021/01/22 05:22:06;;;;;;;3.55;0.70;;;14.20;54.90;;;;;;2594870;52;21024;-67
2021/01/22 05:24:37;;;;;;;3.70;0.82;;;14.20;55.00;;;;;;2351507;53;21020;-66
2021/01/22 05:27:08;;;;;;;3.87;0.82;;;14.30;54.70;;;;;;2354691;53;21435;-66
2021/01/22 05:29:35;;;;;;;5.72;0.80;;;14.20;54.60;;;;;;2357333;53;20950;-66
2021/01/22 05:32:23;;;;;;;3.08;0.70;;;14.20;54.70;;;;;;2621394;52;21664;-66
2021/01/22 05:34:52;;;;;;;4.57;0.70;;;14.20;54.40;;;;;;2599936;52;21274;-66
2021/01/22 05:37:19;;;;;;;4.80;0.90;;;14.20;54.80;;;;;;2330118;53;21095;-66
2021/01/22 05:39:45;;;;;;;3.35;0.77;;;14.20;55.00;;;;;;2330459;53;21068;-66
2021/01/22 05:42:13;;;;;;;3.60;0.80;;;14.20;54.90;;;;;;2576512;52;20966;-66
2021/01/22 05:44:51;;;;;;;3.75;0.77;;;14.20;55.40;;;;;;2340032;53;20947;-66
2021/01/22 05:47:17;;;;;;;4.10;1.10;;;14.20;55.00;;;;;;2584328;53;20944;-66
2021/01/22 05:49:58;;;;;;;3.80;0.77;;;14.20;55.30;;;;;;2580041;52;20995;-66
2021/01/22 05:52:25;;;;;;;3.97;0.70;;;14.20;54.70;;;;;;2606265;52;20962;-66
2021/01/22 05:54:51;;;;;;;3.47;0.80;;;14.20;55.00;;;;;;2598923;52;20916;-65
2021/01/22 05:57:18;;;;;;;2.37;0.50;;;14.20;54.70;;;;;;2615971;52;20934;-66
2021/01/22 05:59:45;;;;;;;5.10;0.82;;;14.20;54.80;;;;;;2616981;52;20947;-66
2021/01/22 06:02:31;;;;;;;4.82;0.90;;;14.20;54.90;;;;;;2593729;52;20930;-66
2021/01/22 06:05:08;;;;;;;2.70;0.70;;;14.20;54.40;;;;;;2622981;52;21009;-66
2021/01/22 06:07:35;;;;;;;3.75;0.68;;;14.20;54.80;;;;;;2371075;53;20971;-66
2021/01/22 06:10:22;;;;;;;3.60;0.77;;;14.30;54.30;;;;;;2362314;54;20955;-66
2021/01/22 06:13:03;;;;;;;3.22;0.85;;;14.30;53.30;;;;;;2355045;54;20956;-66
2021/01/22 06:15:29;;;;;;;2.17;0.60;;;14.30;53.30;;;;;;2590674;52;21748;-66
2021/01/22 06:17:55;;;;;;;2.67;0.62;;;14.30;53.90;;;;;;2616078;52;21482;-66
2021/01/22 06:20:23;;;;;;;1.85;0.65;;;14.30;53.90;;;;;;2589162;52;21514;-66
2021/01/22 06:23:11;;;;;;;6.55;1.20;;;14.30;53.60;;;;;;2619138;52;21701;-66
2021/01/22 06:25:38;;;;;;;3.53;0.77;;;14.30;53.10;;;;;;2588625;52;21472;-66
2021/01/22 06:28:05;;;;;;;4.68;0.70;;;14.30;53.40;;;;;;2354822;54;20943;-66
2021/01/22 06:30:32;;;;;;;2.97;0.70;;;14.40;53.20;;;;;;2591359;52;21862;-67
2021/01/22 06:32:59;;;;;;;3.45;0.77;;;14.40;53.10;;;;;;2587666;52;20994;-66
2021/01/22 06:35:27;;;;;;;6.37;1.17;;;14.50;52.00;;;;;;2573843;52;21510;-67
2021/01/22 06:37:53;;;;;;;3.28;0.77;;;14.40;52.20;;;;;;2612746;52;21052;-66
2021/01/22 06:40:21;;;;;;;3.42;0.75;;;14.40;52.80;;;;;;2565974;52;1809198;-66
2021/01/22 06:42:48;;;;;;;4.30;0.80;;;14.50;52.80;;;;;;2623277;52;21017;-66
2021/01/22 06:45:14;;;;;;;5.90;1.00;;;14.60;52.60;;;;;;2369200;53;20958;-66
2021/01/22 06:47:43;;;;;;;4.43;1.00;;;14.50;52.20;;;;;;2371495;53;20925;-66
2021/01/22 06:50:22;;;;;;;4.95;0.82;;;14.50;51.80;;;;;;2370506;54;20954;-66
2021/01/22 06:53:13;;;;;;;4.72;1.02;;;14.60;51.50;;;;;;2597990;52;20995;-66
2021/01/22 06:56:06;;;;;;;3.10;0.80;;;14.60;51.10;;;;;;2602590;52;20996;-66
2021/01/22 06:58:33;;;;;;;3.92;0.90;;;14.60;50.80;;;;;;2363388;53;20938;-66
2021/01/22 07:01:03;;;;;;;3.58;0.80;;;14.70;50.70;;;;;;2359659;53;21047;-65
2021/01/22 07:03:46;;;;;;;5.57;0.90;;;14.60;50.60;;;;;;2353397;53;21095;-66
2021/01/22 07:13:00;;;;;;;;;;;14.60;49.80;;;;;;2607058;52;21041;-66
2021/01/22 07:15:29;;;;;;;3.55;0.88;;;14.70;50.20;;;;;;2583457;53;20198;-66
2021/01/22 07:17:59;;;;;;;3.55;0.75;;;14.80;52.00;;;;;;2585311;53;20997;-66
2021/01/22 07:20:28;;;;;;;3.55;0.77;;;14.80;51.90;;;;;;2595758;52;21036;-65
2021/01/22 07:22:59;;;;;;;4.45;0.80;;;14.80;50.80;;;;;;2589667;52;20992;-66
2021/01/22 07:25:36;;;;;;;3.92;0.80;;;14.70;50.50;;;;;;2622104;52;20934;-66
2021/01/22 07:28:20;;;;;;;3.25;0.82;;;14.80;50.80;;;;;;2590634;52;20987;-66
2021/01/22 07:30:46;;;;;;;3.83;0.85;;;14.80;50.10;;;;;;2354228;53;20997;-66
2021/01/22 07:36:48;;;;;;;2.20;0.60;;;14.80;50.60;;;;;;2584988;52;20962;-67
2021/01/22 07:39:17;;;;;;;1.77;0.55;;;14.90;50.40;;;;;;2353949;53;20940;-66
2021/01/22 07:41:44;;;;;;;5.53;0.90;;;14.90;51.10;;;;;;2617337;52;21014;-66
2021/01/22 07:44:10;;;;;;;2.37;0.75;;;14.90;51.30;;;;;;2594809;52;20918;-66
2021/01/22 07:46:45;;;;;;;4.07;1.02;;;14.90;50.50;;;;;;2607528;52;21054;-66
2021/01/22 07:49:12;;;;;;;2.97;0.95;;;14.90;50.40;;;;;;2358610;54;21122;-66
2021/01/22 07:51:38;;;;;;;4.12;0.98;;;14.90;50.10;;;;;;2352466;53;20969;-66
2021/01/22 07:54:05;;;;;;;2.33;0.70;;;14.90;50.00;;;;;;2590072;52;20995;-66
2021/01/22 07:56:41;;;;;;;3.65;0.80;;;14.90;50.50;;;;;;2367466;54;21057;-66
2021/01/22 07:59:13;;;;;;;2.35;0.70;;;14.90;50.20;;;;;;2350944;53;21018;-66
2021/01/22 08:01:40;;;;;;;1.83;0.70;;;15.00;50.90;;;;;;2570338;53;21357;-66
2021/01/22 08:04:07;;;;;;;3.20;0.70;;;15.00;51.30;;;;;;2351589;53;20903;-66
2021/01/22 08:07:40;;;;;;;2.92;0.88;;;15.00;51.30;;;;;;2364051;54;21072;-66
2021/01/22 08:10:07;;;;;;;2.28;0.50;;;15.10;50.60;;;;;;2595602;52;20923;-66
2021/01/22 08:12:35;;;;;;;2.28;0.60;;;15.10;51.80;;;;;;2360920;54;20977;-66
2021/01/22 08:15:16;;;;;;;4.78;0.60;;;15.10;52.10;;;;;;2363723;54;20967;-66
2021/01/22 08:17:44;;;;;;;2.65;0.70;;;15.10;50.90;;;;;;2359625;53;20996;-66
2021/01/22 08:20:11;;;;;;;2.30;0.65;;;15.10;51.80;;;;;;2344759;53;20961;-66
2021/01/22 08:22:38;;;;;;;1.95;0.50;;;15.10;51.70;;;;;;2602502;52;20942;-66
2021/01/22 08:25:05;;;;;;;1.80;0.50;;;15.20;52.40;;;;;;2599221;52;21025;-66
2021/01/22 08:27:31;;;;;;;1.62;0.52;;;15.20;52.70;;;;;;2623234;52;21056;-66
2021/01/22 08:30:00;;;;;;;3.08;0.73;;;15.20;52.50;;;;;;2592596;52;21021;-66
2021/01/22 08:32:30;;;;;;;1.50;0.62;;;15.20;52.50;;;;;;2577223;53;20935;-66
2021/01/22 08:34:57;;;;;;;1.37;0.45;;;15.30;52.80;;;;;;2359941;53;20941;-65
2021/01/22 08:37:23;;;;;;;2.60;0.85;;;15.30;52.80;;;;;;2588703;52;21024;-66
2021/01/22 08:40:00;;;;;;;2.10;0.55;;;15.20;52.30;;;;;;2576144;52;20935;-66
2021/01/22 08:42:29;;;;;;;4.40;1.48;;;15.30;51.80;;;;;;2589218;52;20959;-66
2021/01/22 08:45:09;;;;;;;2.60;0.98;;;15.30;52.00;;;;;;2617052;52;20989;-66
2021/01/22 08:47:40;;;;;;;3.08;0.90;;;15.30;52.50;;;;;;2601814;52;21053;-66
2021/01/22 08:50:07;;;;;;;2.35;1.05;;;15.30;52.10;;;;;;2349309;53;20937;-65
2021/01/22 08:52:34;;;;;;;2.28;0.90;;;15.40;52.90;;;;;;2362812;54;21043;-65
2021/01/22 08:55:04;;;;;;;2.67;1.20;;;15.40;53.00;;;;;;2583403;52;20951;-66
2021/01/22 08:57:30;;;;;;;3.25;1.17;;;15.40;52.40;;;;;;2350777;53;20995;-64
2021/01/22 08:59:59;;;;;;;2.67;0.93;;;15.40;52.00;;;;;;2588388;52;20967;-66
2021/01/22 09:03:26;;;;;;;3.22;1.17;;;15.40;51.80;;;;;;2354598;53;24151;-66
2021/01/22 09:05:54;;;;;;;3.50;1.40;;;15.50;51.80;;;;;;2586312;52;21099;-67
2021/01/22 09:08:21;;;;;;;3.28;1.35;;;15.50;52.00;;;;;;2351612;54;20952;-66
2021/01/22 09:10:49;;;;;;;3.03;0.80;;;15.50;52.30;;;;;;2321735;53;21824;-66
2021/01/22 09:13:20;;;;;;;2.08;0.80;;;15.50;51.80;;;;;;2583838;52;20928;-67
2021/01/22 09:15:49;;;;;;;2.20;0.70;;;15.50;52.00;;;;;;2336571;53;21555;-66
2021/01/22 09:18:21;;;;;;;1.87;0.70;;;15.60;52.20;;;;;;2587305;52;21857;-66
2021/01/22 09:21:00;;;;;;;;;;;15.60;51.50;;;;;;2362075;53;20971;-65
2021/01/22 09:23:26;;;;;;;1.95;0.60;;;15.60;51.40;;;;;;2337117;54;20071;-66
2021/01/22 09:25:53;;;;;;;2.75;0.70;;;15.60;51.60;;;;;;2593207;52;20942;-65
2021/01/22 09:28:20;;;;;;;2.25;0.60;;;15.60;51.10;;;;;;2615350;52;20930;-66
2021/01/22 09:30:46;;;;;;;2.67;0.98;;;15.60;51.30;;;;;;2350548;54;21008;-66
2021/01/22 09:33:14;;;;;;;1.92;0.68;;;15.60;50.90;;;;;;2368934;53;20934;-66
2021/01/22 09:35:41;;;;;;;2.90;0.90;;;15.60;51.40;;;;;;2351418;54;21664;-65
2021/01/22 09:38:09;;;;;;;3.47;1.08;;;15.80;50.90;;;;;;2588732;52;21421;-66
2021/01/22 09:40:37;;;;;;;2.37;0.60;;;15.60;50.50;;;;;;2622771;52;20926;-66
2021/01/22 09:43:04;;;;;;;3.50;0.98;;;15.60;51.50;;;;;;2593943;52;21003;-66
2021/01/22 09:45:31;;;;;;;2.20;0.75;;;15.70;51.80;;;;;;2615827;52;20934;-66
2021/01/22 09:47:58;;;;;;;1.70;0.70;;;15.70;52.30;;;;;;2596801;52;20919;-66
2021/01/22 09:50:26;;;;;;;2.45;0.73;;;15.70;52.10;;;;;;2599836;52;21026;-67
2021/01/22 09:52:53;;;;;;;1.33;0.50;;;15.80;52.50;;;;;;2586847;52;20994;-67
2021/01/22 09:55:19;;;;;;;1.40;0.40;;;15.80;52.50;;;;;;2594993;52;20958;-66
2021/01/22 09:57:45;;;;;;;1.23;0.50;;;15.90;52.50;;;;;;2591503;52;20974;-66
2021/01/22 10:00:14;;;;;;;1.80;0.60;;;16.00;52.70;;;;;;2321393;54;21951;-66
2021/01/22 10:02:40;;;;;;;2.33;0.57;;;16.00;52.80;;;;;;2575167;52;20964;-66
2021/01/22 10:05:07;;;;;;;1.17;0.50;;;16.10;52.60;;;;;;2553150;53;21045;-66
2021/01/22 10:07:33;;;;;;;2.42;0.60;;;16.10;52.80;;;;;;2547232;53;21044;-66
2021/01/22 10:10:00;;;;;;;2.53;0.70;;;16.20;53.10;;;;;;2559340;53;21020;-65
2021/01/22 10:12:26;;;;;;;2.92;0.65;;;16.10;53.40;;;;;;2352379;53;20940;-65
2021/01/22 10:14:52;;;;;;;1.75;0.75;;;16.20;53.10;;;;;;2583998;52;20975;-64
2021/01/22 10:17:20;;;;;;;2.08;0.50;;;16.20;52.90;;;;;;2336556;53;20982;-65
2021/01/22 10:19:46;;;;;;;2.03;0.70;;;16.20;53.30;;;;;;2343948;53;21118;-66
2021/01/22 10:22:13;;;;;;;1.62;0.57;;;16.20;52.90;;;;;;2354890;53;20940;-65
2021/01/22 10:24:41;;;;;;;1.25;0.40;;;16.20;53.00;;;;;;2604362;52;20958;-64
2021/01/22 10:27:08;;;;;;;1.77;0.62;;;16.30;53.50;;;;;;2367238;53;21044;-65
2021/01/22 10:29:34;;;;;;;1.52;0.60;;;16.30;53.40;;;;;;2332008;54;21398;-66
2021/01/22 10:32:01;;;;;;;2.30;0.55;;;16.40;53.60;;;;;;2587110;52;21117;-66
2021/01/22 10:34:28;;;;;;;1.87;0.62;;;16.40;53.30;;;;;;2573611;53;20933;-65
2021/01/22 10:36:54;;;;;;;2.03;0.52;;;16.40;53.20;;;;;;2572071;53;21748;-65
2021/01/22 10:39:20;;;;;;;1.62;0.50;;;16.50;53.30;;;;;;2353515;53;21801;-65
2021/01/22 10:41:49;;;;;;;1.83;0.50;;;16.50;53.60;;;;;;2345138;53;20957;-66
2021/01/22 10:44:15;;;;;;;1.30;0.60;;;16.60;53.20;;;;;;2586286;52;21014;-65
2021/01/22 10:46:43;;;;;;;2.33;0.80;;;16.50;53.30;;;;;;2562723;53;21027;-66
2021/01/22 10:49:10;;;;;;;1.70;0.50;;;16.50;53.10;;;;;;2356062;53;21678;-65
2021/01/22 10:51:36;;;;;;;2.22;0.60;;;16.50;53.10;;;;;;2585115;52;20948;-65
2021/01/22 10:54:02;;;;;;;0.73;0.47;;;16.70;53.60;;;;;;2363903;54;21014;-66
2021/01/22 10:56:28;;;;;;;1.40;0.57;;;16.60;53.60;;;;;;2584331;52;21399;-65
2021/01/22 10:58:55;;;;;;;0.98;0.30;;;16.60;53.60;;;;;;2350922;54;20946;-65
2021/01/22 11:01:21;;;;;;;2.33;0.55;;;16.60;54.00;;;;;;2551863;53;21838;-66
2021/01/22 11:03:48;;;;;;;2.53;0.52;;;16.60;54.20;;;;;;2349643;53;21076;-64
2021/01/22 11:06:14;;;;;;;2.03;0.60;;;16.70;54.60;;;;;;2355084;54;20994;-65
2021/01/22 11:08:41;;;;;;;2.47;0.70;;;16.70;54.10;;;;;;2587127;52;20939;-64
2021/01/22 11:11:09;;;;;;;1.60;0.50;;;16.70;54.30;;;;;;2353058;54;21480;-65
2021/01/22 11:13:36;;;;;;;2.08;0.95;;;16.90;55.30;;;;;;2583293;52;20977;-65
2021/01/22 11:16:03;;;;;;;3.20;1.45;;;16.80;54.70;;;;;;2577107;52;20975;-65
2021/01/22 11:18:29;;;;;;;1.83;0.90;;;16.90;54.60;;;;;;2332591;53;21020;-65
2021/01/22 11:20:55;;;;;;;2.62;1.00;;;16.90;54.60;;;;;;2354362;53;20958;-66
2021/01/22 11:23:22;;;;;;;1.73;0.80;;;16.90;54.80;;;;;;2350232;54;20970;-66
2021/01/22 11:25:50;;;;;;;2.20;0.80;;;17.00;54.20;;;;;;2602656;52;20943;-66
2021/01/22 11:28:17;;;;;;;2.03;0.80;;;17.10;53.90;;;;;;2576193;52;21066;-65
2021/01/22 11:30:43;;;;;;;1.50;0.60;;;17.10;52.80;;;;;;2560385;52;21454;-65
2021/01/22 11:33:10;;;;;;;2.90;1.02;;;17.20;52.90;;;;;;2581221;52;20921;-66
2021/01/22 11:35:36;;;;;;;3.22;0.75;;;17.30;52.20;;;;;;2620427;52;20930;-66
2021/01/22 11:38:03;;;;;;;1.85;0.70;;;17.30;52.90;;;;;;2370179;54;20914;-65
2021/01/22 11:40:29;;;;;;;1.70;0.55;;;17.40;53.00;;;;;;2586798;52;20926;-65
2021/01/22 11:42:55;;;;;;;2.75;0.80;;;17.40;53.40;;;;;;2352262;54;20982;-65
2021/01/22 11:45:22;;;;;;;2.33;0.52;;;17.50;53.70;;;;;;2574415;52;20948;-65
2021/01/22 11:47:49;;;;;;;1.48;0.60;;;17.60;53.50;;;;;;2598025;52;21009;-65
2021/01/22 11:50:15;;;;;;;7.37;3.58;;;17.60;53.30;;;;;;2340272;53;21024;-65
2021/01/22 11:52:42;;;;;;;4.22;1.60;;;17.70;52.80;;;;;;2564764;53;21115;-66
2021/01/22 11:55:09;;;;;;;3.05;1.12;;;17.70;51.90;;;;;;2580816;52;21709;-66
2021/01/22 11:57:35;;;;;;;2.35;0.85;;;17.70;52.60;;;;;;2593368;52;20991;-65
2021/01/22 12:00:01;;;;;;;2.15;0.65;;;17.70;51.50;;;;;;2352111;53;21606;-66
2021/01/22 12:02:27;;;;;;;1.83;0.70;;;17.70;51.90;;;;;;2348563;53;21458;-65
2021/01/22 12:04:54;;;;;;;1.60;0.68;;;17.70;51.80;;;;;;2351737;54;21034;-66
2021/01/22 12:07:20;;;;;;;1.67;0.60;;;17.70;52.00;;;;;;2603470;52;20965;-66
2021/01/22 12:09:46;;;;;;;1.45;0.60;;;17.70;52.00;;;;;;2569140;53;20988;-65
2021/01/22 12:12:14;;;;;;;4.57;1.30;;;17.70;52.40;;;;;;2335024;53;21049;-65
2021/01/22 12:14:42;;;;;;;3.72;1.20;;;17.70;52.30;;;;;;2350225;53;20948;-65
2021/01/22 12:17:09;;;;;;;4.05;1.73;;;17.70;52.60;;;;;;2601691;52;20926;-66
2021/01/22 12:19:36;;;;;;;3.70;1.80;;;17.70;52.70;;;;;;2368085;54;21062;-66
2021/01/22 12:22:02;;;;;;;3.22;1.55;;;17.70;52.90;;;;;;2370761;54;20922;-65
2021/01/22 12:24:28;;;;;;;2.35;0.90;;;17.60;53.00;;;;;;2621023;52;20983;-65
2021/01/22 12:26:55;;;;;;;2.65;1.12;;;17.60;53.40;;;;;;2363233;54;21045;-65
2021/01/22 12:29:21;;;;;;;2.75;1.10;;;17.60;53.70;;;;;;2356822;53;21048;-66
2021/01/22 12:31:48;;;;;;;3.12;1.20;;;17.60;54.00;;;;;;2603013;52;20926;-66
2021/01/22 12:34:15;;;;;;;2.10;1.00;;;17.60;54.30;;;;;;2588093;52;20955;-67
2021/01/22 12:36:41;;;;;;;2.22;0.77;;;17.60;54.00;;;;;;2588973;52;21013;-65
2021/01/22 12:39:08;;;;;;;3.37;1.23;;;17.60;54.20;;;;;;2610925;52;20922;-65
2021/01/22 12:41:35;;;;;;;2.62;1.00;;;17.60;54.30;;;;;;2583467;52;20992;-66
2021/01/22 12:44:01;;;;;;;3.95;2.08;;;17.60;54.30;;;;;;2350390;54;21938;-65
2021/01/22 12:46:30;;;;;;;3.85;2.12;;;17.50;54.40;;;;;;2582030;52;20973;-65
2021/01/22 12:48:56;;;;;;;2.58;1.30;;;17.50;55.00;;;;;;2583523;52;21452;-65
2021/01/22 12:51:25;;;;;;;3.12;1.15;;;17.40;54.10;;;;;;2588180;52;20980;-65
2021/01/22 12:53:54;;;;;;;2.35;0.68;;;17.40;53.70;;;;;;2557787;53;21020;-66
2021/01/22 12:56:22;;;;;;;1.80;0.57;;;17.30;53.40;;;;;;2343640;53;20980;-66
2021/01/22 12:58:48;;;;;;;2.22;0.60;;;17.10;53.10;;;;;;2347433;53;20981;-65
2021/01/22 13:01:14;;;;;;;2.28;0.77;;;16.90;53.40;;;;;;2564919;52;21732;-66
2021/01/22 13:03:41;;;;;;;1.52;0.60;;;16.80;53.60;;;;;;2341670;53;20921;-65
2021/01/22 13:06:08;;;;;;;2.40;0.73;;;16.60;53.70;;;;;;2583847;52;20995;-66
2021/01/22 13:08:35;;;;;;;1.92;0.52;;;16.40;53.60;;;;;;2348239;53;20932;-66